createdAt,value
2018-05-08T00:01:00.213Z,5.77
2018-05-08T00:03:28.619Z,6.00
2018-05-08T00:05:56.221Z,6.10
2018-05-08T00:08:23.816Z,5.60
2018-05-08T00:10:52.200Z,5.87
2018-05-08T00:13:19.801Z,5.70
2018-05-08T00:15:47.425Z,5.80
2018-05-08T00:18:15.796Z,5.20
2018-05-08T00:20:44.143Z,6.10
2018-05-08T00:23:11.766Z,5.43
2018-05-08T00:25:39.366Z,6.10
2018-05-08T00:28:06.980Z,5.90
2018-05-08T00:30:34.571Z,6.40
2018-05-08T00:33:02.165Z,6.13
2018-05-08T00:35:30.543Z,5.90
2018-05-08T00:37:58.909Z,5.97
2018-05-08T00:40:27.313Z,6.43
2018-05-08T00:42:54.920Z,6.40
2018-05-08T00:45:22.516Z,5.60
2018-05-08T00:47:50.900Z,6.23
2018-05-08T00:50:19.259Z,6.10
2018-05-08T00:52:46.884Z,7.00
2018-05-08T00:55:14.479Z,6.70
2018-05-08T00:57:42.068Z,6.87
2018-05-08T01:00:09.680Z,6.40
2018-05-08T01:02:37.272Z,6.47
2018-05-08T01:05:05.668Z,7.00
2018-05-08T01:07:34.042Z,6.23
2018-05-08T01:10:02.401Z,6.47
2018-05-08T01:12:30.028Z,7.43
2018-05-08T01:14:57.625Z,6.87
2018-05-08T01:17:25.248Z,6.67
2018-05-08T01:19:52.844Z,6.57
2018-05-08T01:22:20.437Z,6.43
2018-05-08T01:24:48.053Z,7.43
2018-05-08T01:27:19.314Z,6.93
2018-05-08T01:29:46.933Z,7.07
2018-05-08T01:32:14.524Z,7.47
2018-05-08T01:34:42.124Z,7.77
2018-05-08T01:37:09.743Z,6.73
2018-05-08T01:39:37.340Z,6.03
2018-05-08T01:42:04.960Z,6.50
2018-05-08T01:44:32.560Z,6.93
2018-05-08T01:47:00.153Z,7.10
2018-05-08T01:49:27.780Z,6.57
2018-05-08T01:51:55.376Z,6.77
2018-05-08T01:54:23.014Z,7.20
2018-05-08T01:56:50.630Z,8.00
2018-05-08T01:59:18.233Z,6.97
2018-05-08T02:01:45.875Z,7.37
2018-05-08T02:04:14.241Z,7.03
2018-05-08T02:06:42.636Z,6.83
2018-05-08T02:09:11.016Z,7.60
2018-05-08T02:11:39.379Z,6.90
2018-05-08T02:14:07.776Z,8.07
2018-05-08T02:16:35.371Z,7.00
2018-05-08T02:19:03.000Z,6.73
2018-05-08T02:21:30.605Z,7.33
2018-05-08T02:23:58.201Z,7.20
2018-05-08T02:26:26.585Z,6.77
2018-05-08T02:28:56.691Z,7.77
2018-05-08T02:31:25.090Z,7.70
2018-05-08T02:33:53.460Z,7.00
2018-05-08T02:36:21.813Z,6.40
2018-05-08T02:38:49.448Z,5.70
2018-05-08T02:41:17.044Z,5.70
2018-05-08T02:43:44.665Z,5.70
2018-05-08T02:46:12.261Z,6.00
2018-05-08T02:48:39.860Z,6.57
2018-05-08T02:51:07.480Z,5.90
2018-05-08T02:53:35.085Z,6.20
2018-05-08T02:56:02.708Z,6.30
2018-05-08T02:58:30.317Z,7.17
2018-05-08T03:00:57.914Z,6.90
2018-05-08T03:03:25.539Z,7.20
2018-05-08T03:05:59.528Z,7.00
2018-05-08T03:08:27.148Z,7.73
2018-05-08T03:10:54.745Z,8.17
2018-05-08T03:13:23.107Z,8.00
2018-05-08T03:15:51.492Z,8.67
2018-05-08T03:18:19.849Z,7.53
2018-05-08T03:20:47.469Z,7.50
2018-05-08T03:23:15.048Z,7.30
2018-05-08T03:25:56.568Z,7.83
2018-05-08T03:28:24.927Z,8.13
2018-05-08T03:30:52.516Z,8.10
2018-05-08T03:33:20.905Z,7.90
2018-05-08T03:35:48.493Z,7.60
2018-05-08T03:38:16.112Z,7.30
2018-05-08T03:40:44.471Z,8.37
2018-05-08T03:43:12.073Z,8.13
2018-05-08T03:45:39.689Z,8.10
2018-05-08T03:48:07.276Z,8.00
2018-05-08T03:50:34.906Z,8.73
2018-05-08T03:53:02.506Z,8.13
2018-05-08T03:55:30.101Z,8.93
2018-05-08T03:57:57.729Z,8.30
2018-05-08T04:00:37.255Z,7.70
2018-05-08T04:03:17.565Z,7.97
2018-05-08T04:08:48.808Z,9.17
2018-05-08T04:11:16.396Z,8.60
2018-05-08T04:13:44.073Z,8.23
2018-05-08T04:16:11.674Z,8.90
2018-05-08T04:18:39.273Z,8.67
2018-05-08T04:21:06.980Z,8.37
2018-05-08T04:23:34.529Z,8.10
2018-05-08T04:26:02.213Z,8.30
2018-05-08T04:28:29.819Z,8.03
2018-05-08T04:30:58.178Z,8.77
2018-05-08T04:33:25.788Z,8.80
2018-05-08T04:35:53.380Z,9.03
2018-05-08T04:38:20.995Z,9.10
2018-05-08T04:40:48.584Z,8.90
2018-05-08T04:43:16.201Z,9.80
2018-05-08T04:45:43.813Z,9.43
2018-05-08T04:48:12.169Z,8.93
2018-05-08T04:50:39.788Z,8.53
2018-05-08T04:53:07.376Z,9.10
2018-05-08T04:55:38.121Z,8.40
2018-05-08T04:58:05.731Z,9.00
2018-05-08T05:00:33.335Z,8.80
2018-05-08T05:03:00.996Z,8.97
2018-05-08T05:05:28.591Z,8.90
2018-05-08T05:07:56.192Z,9.13
2018-05-08T05:10:23.800Z,9.63
2018-05-08T05:12:52.176Z,9.00
2018-05-08T05:15:20.562Z,9.27
2018-05-08T05:17:48.992Z,9.63
2018-05-08T05:20:16.576Z,9.30
2018-05-08T05:22:44.199Z,9.03
2018-05-08T05:25:11.788Z,9.20
2018-05-08T05:27:39.404Z,9.40
2018-05-08T05:30:07.004Z,9.97
2018-05-08T05:32:34.610Z,9.90
2018-05-08T05:35:02.233Z,10.20
2018-05-08T05:37:29.836Z,10.50
2018-05-08T05:39:57.458Z,9.60
2018-05-08T05:42:28.342Z,10.90
2018-05-08T05:44:55.935Z,9.67
2018-05-08T05:47:23.566Z,11.83
2018-05-08T05:50:10.893Z,9.50
2018-05-08T05:52:38.514Z,9.00
2018-05-08T05:55:06.880Z,9.47
2018-05-08T05:57:34.475Z,7.80
2018-05-08T06:00:02.179Z,7.67
2018-05-08T06:02:30.481Z,6.50
2018-05-08T06:04:58.097Z,5.63
2018-05-08T06:07:26.239Z,6.00
2018-05-08T06:09:53.835Z,5.63
2018-05-08T06:12:21.454Z,5.80
2018-05-08T06:14:49.812Z,6.17
2018-05-08T06:17:17.518Z,5.90
2018-05-08T06:19:45.057Z,5.77
2018-05-08T06:22:13.412Z,6.00
2018-05-08T06:24:41.056Z,4.77
2018-05-08T06:27:08.643Z,5.80
2018-05-08T06:29:37.044Z,5.23
2018-05-08T06:32:04.636Z,5.47
2018-05-08T06:34:35.927Z,5.13
2018-05-08T06:37:04.311Z,5.17
2018-05-08T06:39:32.731Z,4.80
2018-05-08T06:42:00.349Z,5.40
2018-05-08T06:44:29.387Z,4.67
2018-05-08T06:46:56.993Z,5.13
2018-05-08T06:49:24.608Z,5.17
2018-05-08T06:51:52.906Z,4.90
2018-05-08T06:54:20.756Z,4.43
2018-05-08T06:56:48.541Z,4.10
2018-05-08T06:59:16.801Z,4.20
2018-05-08T07:01:45.120Z,4.37
2018-05-08T07:04:12.813Z,4.77
2018-05-08T07:06:40.438Z,3.97
2018-05-08T07:09:08.132Z,4.90
2018-05-08T07:11:35.734Z,4.33
2018-05-08T07:14:03.358Z,4.30
2018-05-08T07:16:31.554Z,4.40
2018-05-08T07:18:59.151Z,4.10
2018-05-08T07:21:26.872Z,4.37
2018-05-08T07:23:54.504Z,3.70
2018-05-08T07:26:23.032Z,3.87
2018-05-08T07:28:50.625Z,3.70
2018-05-08T07:31:18.229Z,3.40
2018-05-08T07:33:45.841Z,4.20
2018-05-08T07:36:13.437Z,3.77
2018-05-08T07:38:41.053Z,3.90
2018-05-08T07:41:08.652Z,3.60
2018-05-08T07:43:37.008Z,3.43
2018-05-08T07:46:05.412Z,3.97
2018-05-08T07:48:33.012Z,4.27
2018-05-08T07:51:00.640Z,3.50
2018-05-08T07:53:28.229Z,3.30
2018-05-08T07:55:55.820Z,3.47
2018-05-08T07:58:23.439Z,3.50
2018-05-08T08:00:51.036Z,3.30
2018-05-08T08:03:18.773Z,3.90
2018-05-08T08:05:46.376Z,3.50
2018-05-08T08:08:14.749Z,3.27
2018-05-08T08:10:42.901Z,3.70
2018-05-08T08:13:11.137Z,3.63
2018-05-08T08:15:38.796Z,3.27
2018-05-08T08:18:06.402Z,3.07
2018-05-08T08:20:33.999Z,3.07
2018-05-08T08:23:02.385Z,3.20
2018-05-08T08:25:30.022Z,3.30
2018-05-08T08:27:57.637Z,3.83
2018-05-08T08:30:25.229Z,3.00
2018-05-08T08:32:53.448Z,3.40
2018-05-08T08:35:21.060Z,3.33
2018-05-08T08:37:48.653Z,3.37
2018-05-08T08:40:17.032Z,3.40
2018-05-08T08:42:45.383Z,3.33
2018-05-08T08:45:13.012Z,3.30
2018-05-08T08:47:40.711Z,3.90
2018-05-08T08:50:08.236Z,3.60
2018-05-08T08:52:35.873Z,3.33
2018-05-08T08:55:03.465Z,3.40
2018-05-08T08:57:31.152Z,3.23
2018-05-08T08:59:58.760Z,3.23
2018-05-08T09:02:26.349Z,3.00
2018-05-08T09:04:53.980Z,2.80
2018-05-08T09:07:21.587Z,2.77
2018-05-08T09:09:49.891Z,3.60
2018-05-08T09:12:18.269Z,2.90
2018-05-08T09:14:46.627Z,2.50
2018-05-08T09:17:14.821Z,3.03
2018-05-08T09:19:43.189Z,3.33
2018-05-08T09:22:11.559Z,2.60
2018-05-08T09:24:40.773Z,2.50
2018-05-08T09:27:09.921Z,2.70
2018-05-08T09:29:38.952Z,2.70
2018-05-08T09:32:07.341Z,3.40
2018-05-08T09:34:36.489Z,2.30
2018-05-08T09:37:04.259Z,3.17
2018-05-08T09:39:31.858Z,2.70
2018-05-08T09:42:00.242Z,2.87
2018-05-08T09:44:28.599Z,3.30
2018-05-08T09:46:56.198Z,2.90
2018-05-08T09:49:23.815Z,2.90
2018-05-08T09:51:51.405Z,2.77
2018-05-08T09:54:20.013Z,2.80
2018-05-08T09:56:47.613Z,2.90
2018-05-08T09:59:15.483Z,2.80
2018-05-08T10:01:43.113Z,2.70
2018-05-08T10:04:10.701Z,2.70
2018-05-08T10:06:39.193Z,3.10
2018-05-08T10:09:07.486Z,2.97
2018-05-08T10:11:35.843Z,2.90
2018-05-08T10:14:03.465Z,2.93
2018-05-08T10:16:31.059Z,2.73
2018-05-08T10:18:58.687Z,3.30
2018-05-08T10:21:27.056Z,3.10
2018-05-08T10:23:54.648Z,3.00
2018-05-08T10:26:22.276Z,2.57
2018-05-08T10:28:49.877Z,3.03
2018-05-08T10:31:17.505Z,2.43
2018-05-08T10:33:45.852Z,2.77
2018-05-08T10:36:14.383Z,2.83
2018-05-08T10:38:42.016Z,3.00
2018-05-08T10:41:10.189Z,2.50
2018-05-08T10:43:37.857Z,2.60
2018-05-08T10:46:05.486Z,2.40
2018-05-08T10:48:33.848Z,2.90
2018-05-08T10:51:01.469Z,2.80
2018-05-08T10:53:29.060Z,2.27
2018-05-08T10:55:56.696Z,2.40
2018-05-08T10:58:24.304Z,2.10
2018-05-08T11:00:52.680Z,2.80
2018-05-08T11:03:21.076Z,2.60
2018-05-08T11:05:48.720Z,2.40
2018-05-08T11:08:17.119Z,2.57
2018-05-08T11:10:45.477Z,2.80
2018-05-08T11:13:13.841Z,2.43
2018-05-08T11:15:41.452Z,2.77
2018-05-08T11:18:09.043Z,2.27
2018-05-08T11:20:36.681Z,2.67
2018-05-08T11:23:04.284Z,2.80
2018-05-08T11:25:31.876Z,2.97
2018-05-08T11:28:03.144Z,2.50
2018-05-08T11:30:30.735Z,1.90
2018-05-08T11:32:58.853Z,2.03
2018-05-08T11:35:26.459Z,2.80
2018-05-08T11:37:54.428Z,2.47
2018-05-08T11:40:22.039Z,2.63
2018-05-08T11:42:50.396Z,2.30
2018-05-08T11:45:18.020Z,2.40
2018-05-08T11:47:46.385Z,2.67
2018-05-08T11:50:13.989Z,2.60
2018-05-08T11:52:41.604Z,2.50
2018-05-08T11:55:09.839Z,2.30
2018-05-08T11:57:38.228Z,2.33
2018-05-08T12:00:06.592Z,2.23
2018-05-08T12:02:34.964Z,2.50
2018-05-08T12:05:02.588Z,2.30
2018-05-08T12:07:30.180Z,2.13
2018-05-08T12:09:57.797Z,2.53
2018-05-08T12:12:25.396Z,2.57
2018-05-08T12:14:53.011Z,2.10
2018-05-08T12:17:20.649Z,2.40
2018-05-08T12:19:49.025Z,2.40
2018-05-08T12:22:17.404Z,1.93
2018-05-08T12:24:45.008Z,2.67
2018-05-08T12:27:12.597Z,2.30
2018-05-08T12:29:40.223Z,2.60
2018-05-08T12:32:07.821Z,2.20
2018-05-08T12:34:35.893Z,2.40
2018-05-08T12:37:03.506Z,2.43
2018-05-08T12:39:31.093Z,2.47
2018-05-08T12:41:58.784Z,2.53
2018-05-08T12:44:26.332Z,2.20
2018-05-08T12:46:53.969Z,2.00
2018-05-08T12:49:21.576Z,2.60
2018-05-08T12:51:49.199Z,2.07
2018-05-08T12:54:16.809Z,2.40
2018-05-08T12:56:44.417Z,2.20
2018-05-08T12:59:12.036Z,2.40
2018-05-08T13:01:39.629Z,2.90
2018-05-08T13:04:07.218Z,2.20
2018-05-08T13:06:34.841Z,2.40
2018-05-08T13:09:02.433Z,3.03
2018-05-08T13:11:30.866Z,2.10
2018-05-08T13:13:58.469Z,2.67
2018-05-08T13:16:26.065Z,2.50
2018-05-08T13:18:54.442Z,2.47
2018-05-08T13:21:23.436Z,2.30
2018-05-08T13:23:51.067Z,2.60
2018-05-08T13:26:18.675Z,3.03
2018-05-08T13:28:46.852Z,2.50
2018-05-08T13:31:14.530Z,2.63
2018-05-08T13:33:42.120Z,2.70
2018-05-08T13:36:09.713Z,2.50
2018-05-08T13:38:38.095Z,2.57
2018-05-08T13:41:06.449Z,2.37
2018-05-08T13:43:34.039Z,2.90
2018-05-08T13:46:01.656Z,2.50
2018-05-08T13:48:29.299Z,2.70
2018-05-08T13:50:56.921Z,2.40
2018-05-08T13:53:24.576Z,2.47
2018-05-08T13:55:52.138Z,2.37
2018-05-08T13:58:20.512Z,2.30
2018-05-08T14:00:48.919Z,2.70
2018-05-08T14:03:16.563Z,2.70
2018-05-08T14:05:44.167Z,2.40
2018-05-08T14:08:11.798Z,2.43
2018-05-08T14:10:39.420Z,2.50
2018-05-08T14:13:07.027Z,2.60
2018-05-08T14:15:34.712Z,2.43
2018-05-08T14:18:02.978Z,2.27
2018-05-08T14:20:30.588Z,2.80
2018-05-08T14:22:58.222Z,2.43
2018-05-08T14:25:25.816Z,2.40
2018-05-08T14:27:53.430Z,2.60
2018-05-08T14:30:21.022Z,2.37
2018-05-08T14:32:49.393Z,2.27
2018-05-08T14:35:17.018Z,2.60
2018-05-08T14:37:44.915Z,2.80
2018-05-08T14:40:12.536Z,2.53
2018-05-08T14:42:40.133Z,2.30
2018-05-08T14:45:08.513Z,2.33
2018-05-08T14:47:36.128Z,2.77
2018-05-08T14:50:03.732Z,2.63
2018-05-08T14:52:31.345Z,2.70
2018-05-08T14:54:58.936Z,2.40
2018-05-08T14:57:43.093Z,2.53
2018-05-08T15:00:10.709Z,2.20
2018-05-08T15:02:38.303Z,2.27
2018-05-08T15:05:05.916Z,2.20
2018-05-08T15:07:34.261Z,2.40
2018-05-08T15:10:01.877Z,2.37
2018-05-08T15:12:29.505Z,2.10
2018-05-08T15:14:57.860Z,2.30
2018-05-08T15:17:25.479Z,2.83
2018-05-08T15:19:53.069Z,2.40
2018-05-08T15:22:20.693Z,2.53
2018-05-08T15:24:48.284Z,2.43
2018-05-08T15:27:15.953Z,2.50
2018-05-08T15:29:43.577Z,2.53
2018-05-08T15:32:24.603Z,2.40
2018-05-08T15:34:55.708Z,2.93
2018-05-08T15:37:23.306Z,2.20
2018-05-08T15:39:50.973Z,2.57
2018-05-08T15:42:22.264Z,2.47
2018-05-08T15:44:49.971Z,2.60
2018-05-08T15:47:17.674Z,2.40
2018-05-08T15:49:45.544Z,2.17
2018-05-08T15:52:13.180Z,2.60
2018-05-08T15:54:40.787Z,2.07
2018-05-08T15:57:08.381Z,2.50
2018-05-08T15:59:36.005Z,2.10
2018-05-08T16:02:03.668Z,2.23
2018-05-08T16:04:32.018Z,2.50
2018-05-08T16:06:59.641Z,2.60
2018-05-08T16:09:30.906Z,2.80
2018-05-08T16:11:58.536Z,2.50
2018-05-08T16:14:31.589Z,2.50
2018-05-08T16:17:03.110Z,2.67
2018-05-08T16:19:32.549Z,2.70
2018-05-08T16:22:06.014Z,2.53
2018-05-08T16:24:35.341Z,3.00
2018-05-08T16:27:02.931Z,2.70
2018-05-08T16:29:30.679Z,2.40
2018-05-08T16:31:58.285Z,2.10
2018-05-08T16:34:25.945Z,2.50
2018-05-08T16:36:53.537Z,2.30
2018-05-08T16:39:21.177Z,3.90
2018-05-08T16:41:49.584Z,2.53
2018-05-08T16:44:17.229Z,2.40
2018-05-08T16:46:45.612Z,2.77
2018-05-08T16:49:13.977Z,2.60
2018-05-08T16:51:42.340Z,2.60
2018-05-08T16:54:09.965Z,2.50
2018-05-08T16:56:37.557Z,2.40
2018-05-08T16:59:05.186Z,2.60
2018-05-08T17:01:32.778Z,2.47
2018-05-08T17:04:00.388Z,2.60
2018-05-08T17:06:28.005Z,2.40
2018-05-08T17:08:55.602Z,2.80
2018-05-08T17:11:23.221Z,2.50
2018-05-08T17:13:50.819Z,3.10
2018-05-08T17:16:19.206Z,2.60
2018-05-08T17:18:46.842Z,2.30
2018-05-08T17:21:15.205Z,2.50
2018-05-08T17:23:42.861Z,2.60
2018-05-08T17:26:10.474Z,2.80
2018-05-08T17:28:38.064Z,2.40
2018-05-08T17:31:05.701Z,2.60
2018-05-08T17:33:33.320Z,2.63
2018-05-08T17:36:01.751Z,2.20
2018-05-08T17:38:29.335Z,2.80
2018-05-08T17:41:16.545Z,2.53
2018-05-08T17:43:44.147Z,2.47
2018-05-08T17:46:12.506Z,2.50
2018-05-08T17:48:40.127Z,2.73
2018-05-08T17:51:07.713Z,2.83
2018-05-08T17:53:35.344Z,3.07
2018-05-08T17:56:02.993Z,3.00
2018-05-08T17:58:30.585Z,2.50
2018-05-08T18:00:58.195Z,2.70
2018-05-08T18:03:26.571Z,2.80
2018-05-08T18:05:54.935Z,2.80
2018-05-08T18:08:22.557Z,2.50
2018-05-08T18:10:50.931Z,2.70
2018-05-08T18:13:18.524Z,3.13
2018-05-08T18:15:46.393Z,2.60
2018-05-08T18:18:14.777Z,2.83
2018-05-08T18:20:42.400Z,2.70
2018-05-08T18:23:09.995Z,3.00
2018-05-08T18:25:37.695Z,3.00
2018-05-08T18:28:05.241Z,3.17
2018-05-08T18:30:33.599Z,2.73
2018-05-08T18:33:01.228Z,2.77
2018-05-08T18:35:28.824Z,2.93
2018-05-08T18:37:56.413Z,3.23
2018-05-08T18:40:24.032Z,3.63
2018-05-08T18:42:51.639Z,2.80
2018-05-08T18:45:19.278Z,3.10
2018-05-08T18:47:47.976Z,3.27
2018-05-08T18:50:16.181Z,3.17
2018-05-08T18:52:43.976Z,3.40
2018-05-08T18:55:11.748Z,3.07
2018-05-08T18:57:39.574Z,3.50
2018-05-08T19:00:14.806Z,3.03
2018-05-08T19:02:42.420Z,2.90
2018-05-08T19:05:10.031Z,2.60
2018-05-08T19:07:37.619Z,2.93
2018-05-08T19:10:05.247Z,3.07
2018-05-08T19:12:32.841Z,2.60
2018-05-08T19:18:04.369Z,4.90
2018-05-08T19:20:31.985Z,3.50
2018-05-08T19:22:59.580Z,3.90
2018-05-08T19:25:27.186Z,3.50
2018-05-08T19:28:00.459Z,2.90
2018-05-08T19:30:29.889Z,3.70
2018-05-08T19:32:57.500Z,3.40
2018-05-08T19:35:30.746Z,3.40
2018-05-08T19:38:19.147Z,3.40
2018-05-08T19:40:46.732Z,3.13
2018-05-08T19:43:14.347Z,3.37
2018-05-08T19:45:42.069Z,4.00
2018-05-08T19:48:10.562Z,3.17
2018-05-08T19:50:38.236Z,3.90
2018-05-08T19:53:06.598Z,4.00
2018-05-08T19:55:34.224Z,3.20
2018-05-08T19:58:01.821Z,3.37
2018-05-08T20:00:29.423Z,3.50
2018-05-08T20:02:57.036Z,3.50
2018-05-08T20:05:24.624Z,3.53
2018-05-08T20:07:53.013Z,3.33
2018-05-08T20:10:21.545Z,3.57
2018-05-08T20:12:49.178Z,3.23
2018-05-08T20:15:16.822Z,3.50
2018-05-08T20:17:44.467Z,3.73
2018-05-08T20:20:13.749Z,3.50
2018-05-08T20:22:42.147Z,3.53
2018-05-08T20:25:10.527Z,4.00
2018-05-08T20:27:38.905Z,3.40
2018-05-08T20:30:07.262Z,3.80
2018-05-08T20:32:34.928Z,3.83
2018-05-08T20:35:02.569Z,3.60
2018-05-08T20:37:30.185Z,3.90
2018-05-08T20:39:57.786Z,4.10
2018-05-08T20:42:25.377Z,3.83
2018-05-08T20:44:52.996Z,4.50
2018-05-08T20:50:13.965Z,4.40
2018-05-08T20:52:42.371Z,3.87
2018-05-08T20:55:09.984Z,4.63
2018-05-08T20:57:37.600Z,4.27
2018-05-08T21:00:05.235Z,4.00
2018-05-08T21:02:32.873Z,4.30
2018-05-08T21:05:00.474Z,3.80
2018-05-08T21:07:28.066Z,3.80
2018-05-08T21:09:55.733Z,3.53
2018-05-08T21:12:29.119Z,4.10
2018-05-08T21:14:56.731Z,4.10
2018-05-08T21:17:25.100Z,4.07
2018-05-08T21:19:52.692Z,3.97
2018-05-08T21:22:20.316Z,4.23
2018-05-08T21:24:47.904Z,3.97
2018-05-08T21:27:15.499Z,3.93
2018-05-08T21:29:48.847Z,4.50
2018-05-08T21:32:17.200Z,4.00
2018-05-08T21:34:44.801Z,4.57
2018-05-08T21:37:12.426Z,3.80
2018-05-08T21:39:40.050Z,3.80
2018-05-08T21:42:07.657Z,4.30
2018-05-08T21:44:35.250Z,4.33
2018-05-08T21:47:02.835Z,4.30
2018-05-08T21:49:30.448Z,4.00
2018-05-08T21:51:58.805Z,4.57
2018-05-08T21:54:26.431Z,4.00
2018-05-08T21:56:54.023Z,4.57
2018-05-08T21:59:21.604Z,3.77
2018-05-08T22:01:49.985Z,4.50
2018-05-08T22:04:18.349Z,4.13
2018-05-08T22:06:45.975Z,4.53
2018-05-08T22:09:13.592Z,4.47
2018-05-08T22:11:41.188Z,4.17
2018-05-08T22:14:08.800Z,3.60
2018-05-08T22:16:37.163Z,4.00
2018-05-08T22:19:04.781Z,4.33
2018-05-08T22:21:32.376Z,4.33
2018-05-08T22:23:59.967Z,4.37
2018-05-08T22:26:28.350Z,4.17
2018-05-08T22:28:56.773Z,4.53
2018-05-08T22:31:24.393Z,4.70
2018-05-08T22:33:59.352Z,4.53
2018-05-08T22:36:26.961Z,3.90
2018-05-08T22:38:54.548Z,4.17
2018-05-08T22:41:22.904Z,4.80
2018-05-08T22:43:50.523Z,4.53
2018-05-08T22:46:18.132Z,5.00
2018-05-08T22:48:46.517Z,3.90
2018-05-08T22:51:14.875Z,4.60
2018-05-08T22:53:42.477Z,4.80
2018-05-08T22:56:10.091Z,5.40
2018-05-08T22:58:37.684Z,4.50
2018-05-08T23:01:05.317Z,4.50
2018-05-08T23:03:32.915Z,5.17
2018-05-08T23:06:09.463Z,5.53
2018-05-08T23:08:40.416Z,4.50
2018-05-08T23:11:08.465Z,5.80
2018-05-08T23:13:36.834Z,4.70
2018-05-08T23:16:04.425Z,4.90
2018-05-08T23:18:32.804Z,4.73
2018-05-08T23:21:00.403Z,4.70
2018-05-08T23:23:28.027Z,4.90
2018-05-08T23:25:55.625Z,4.87
2018-05-08T23:28:23.212Z,4.80
2018-05-08T23:30:50.828Z,4.90
2018-05-08T23:33:19.869Z,5.30
2018-05-08T23:35:47.495Z,4.60
2018-05-08T23:38:25.705Z,4.63
2018-05-08T23:40:53.330Z,5.13
2018-05-08T23:43:20.928Z,5.10
2018-05-08T23:45:48.531Z,6.10
2018-05-08T23:48:16.901Z,4.97
2018-05-08T23:50:44.488Z,5.00
2018-05-08T23:53:12.139Z,5.47
2018-05-08T23:55:40.499Z,4.97
2018-05-08T23:58:08.098Z,5.40
